createdAt,value
2019-04-21T00:00:56.860Z,3.60
2019-04-21T00:03:28.762Z,3.10
2019-04-21T00:06:12.071Z,3.80
2019-04-21T00:08:44.152Z,3.20
2019-04-21T00:11:15.289Z,3.40
2019-04-21T00:13:38.136Z,3.00
2019-04-21T00:16:00.344Z,2.73
2019-04-21T00:19:02.332Z,3.40
2019-04-21T00:21:34.459Z,3.40
2019-04-21T00:24:24.855Z,3.47
2019-04-21T00:27:03.724Z,3.13
2019-04-21T00:29:38.538Z,3.70
2019-04-21T00:31:57.919Z,3.30
2019-04-21T00:34:15.447Z,3.23
2019-04-21T00:36:56.149Z,3.27
2019-04-21T00:39:43.625Z,3.63
2019-04-21T00:42:05.166Z,3.10
2019-04-21T00:44:28.426Z,3.50
2019-04-21T00:47:03.069Z,3.10
2019-04-21T00:49:35.965Z,3.30
2019-04-21T00:52:46.051Z,4.07
2019-04-21T00:55:20.189Z,3.60
2019-04-21T00:57:45.317Z,3.07
2019-04-21T01:00:16.114Z,3.70
2019-04-21T01:02:46.860Z,3.50
2019-04-21T01:05:18.589Z,3.67
2019-04-21T01:07:42.338Z,3.50
2019-04-21T01:10:05.294Z,3.50
2019-04-21T01:12:41.756Z,3.77
2019-04-21T01:15:24.630Z,3.30
2019-04-21T01:17:51.971Z,3.43
2019-04-21T01:20:17.558Z,4.13
2019-04-21T01:22:45.448Z,3.57
2019-04-21T01:25:22.683Z,3.33
2019-04-21T01:28:01.248Z,3.50
2019-04-21T01:30:34.585Z,3.23
2019-04-21T01:33:07.581Z,3.70
2019-04-21T01:35:42.596Z,3.70
2019-04-21T01:38:19.516Z,3.67
2019-04-21T01:40:42.857Z,3.53
2019-04-21T01:43:07.851Z,4.20
2019-04-21T01:45:41.655Z,3.90
2019-04-21T01:48:06.623Z,3.73
2019-04-21T01:50:41.190Z,4.30
2019-04-21T01:53:23.928Z,3.70
2019-04-21T01:56:07.865Z,4.17
2019-04-21T01:58:32.249Z,4.07
2019-04-21T02:01:08.498Z,3.90
2019-04-21T02:06:24.186Z,4.40
2019-04-21T02:08:49.430Z,4.03
2019-04-21T02:11:26.427Z,4.70
2019-04-21T02:13:58.928Z,4.40
2019-04-21T02:16:23.096Z,4.10
2019-04-21T02:18:52.988Z,4.60
2019-04-21T02:21:19.075Z,4.23
2019-04-21T02:23:58.726Z,4.17
2019-04-21T02:26:22.646Z,4.10
2019-04-21T02:31:40.357Z,4.80
2019-04-21T02:39:18.039Z,4.60
2019-04-21T02:41:41.736Z,4.17
2019-04-21T02:44:12.441Z,4.63
2019-04-21T02:46:38.553Z,4.07
2019-04-21T02:56:48.173Z,4.90
2019-04-21T02:59:15.080Z,4.80
2019-04-21T03:01:56.651Z,5.50
2019-04-21T03:04:55.365Z,7.10
2019-04-21T03:07:17.759Z,5.10
2019-04-21T03:09:53.100Z,5.30
2019-04-21T03:12:22.620Z,4.83
2019-04-21T03:15:11.418Z,4.80
2019-04-21T03:17:41.752Z,5.17
2019-04-21T03:22:24.919Z,5.10
2019-04-21T03:27:46.556Z,5.00
2019-04-21T03:30:01.004Z,4.57
2019-04-21T03:37:49.693Z,5.20
2019-04-21T03:40:05.265Z,5.37
2019-04-21T03:45:03.666Z,5.00
2019-04-21T03:52:46.029Z,5.30
2019-04-21T04:00:44.841Z,5.13
2019-04-21T04:03:46.986Z,5.80
2019-04-21T04:06:09.605Z,4.70
2019-04-21T04:09:14.431Z,5.63
2019-04-21T04:16:39.434Z,5.30
2019-04-21T04:21:37.222Z,5.60
2019-04-21T04:24:04.035Z,5.90
2019-04-21T04:26:39.783Z,5.97
2019-04-21T04:29:12.416Z,5.30
2019-04-21T04:34:18.608Z,5.53
2019-04-21T04:39:45.659Z,5.90
2019-04-21T04:42:27.087Z,5.40
2019-04-21T04:47:18.466Z,5.77
2019-04-21T04:52:31.235Z,6.27
2019-04-21T04:54:59.364Z,6.20
2019-04-21T04:57:51.276Z,6.57
2019-04-21T05:00:00.777Z,5.90
2019-04-21T05:10:04.262Z,6.20
2019-04-21T05:38:11.688Z,6.80
2019-04-21T05:45:10.592Z,6.80
2019-04-21T05:47:26.786Z,6.33
2019-04-21T05:49:55.979Z,6.97
2019-04-21T05:52:27.544Z,6.57
2019-04-21T05:55:06.358Z,7.40
2019-04-21T05:57:33.511Z,7.97
2019-04-21T05:59:59.455Z,7.43
2019-04-21T06:02:37.757Z,6.70
2019-04-21T06:07:34.753Z,6.87
2019-04-21T06:10:12.316Z,7.00
2019-04-21T06:12:44.944Z,6.77
2019-04-21T06:15:47.306Z,7.20
2019-04-21T06:21:10.810Z,6.80
2019-04-21T06:24:05.216Z,7.00
2019-04-21T06:26:27.990Z,6.80
2019-04-21T06:28:48.568Z,7.17
2019-04-21T06:33:44.998Z,8.13
2019-04-21T06:41:32.573Z,7.93
2019-04-21T06:46:39.320Z,7.83
2019-04-21T06:51:32.285Z,7.53
2019-04-21T06:54:03.431Z,7.77
2019-04-21T06:56:37.985Z,8.07
2019-04-21T06:59:00.703Z,8.37
2019-04-21T07:01:38.986Z,8.43
2019-04-21T07:04:11.209Z,7.90
2019-04-21T07:06:35.642Z,7.50
2019-04-21T07:09:15.945Z,8.60
2019-04-21T07:11:34.953Z,7.70
2019-04-21T07:14:22.561Z,8.77
2019-04-21T07:16:38.654Z,8.87
2019-04-21T07:19:18.518Z,8.20
2019-04-21T07:21:43.476Z,9.13
2019-04-21T07:24:13.858Z,8.57
2019-04-21T07:26:36.844Z,8.00
2019-04-21T07:29:08.072Z,8.60
2019-04-21T07:31:47.015Z,8.80
2019-04-21T07:34:16.033Z,8.70
2019-04-21T07:39:08.371Z,8.40
2019-04-21T07:41:36.704Z,8.77
2019-04-21T07:44:06.254Z,8.33
2019-04-21T07:46:33.694Z,8.20
2019-04-21T07:49:12.798Z,8.60
2019-04-21T07:51:59.216Z,8.90
2019-04-21T07:54:34.144Z,8.73
2019-04-21T07:56:43.923Z,8.90
2019-04-21T07:59:39.478Z,8.90
2019-04-21T08:02:02.519Z,8.67
2019-04-21T08:04:45.504Z,10.50
2019-04-21T08:06:58.198Z,8.33
2019-04-21T08:09:26.163Z,8.80
2019-04-21T08:11:54.743Z,8.30
2019-04-21T08:14:31.228Z,9.97
2019-04-21T08:17:02.826Z,8.50
2019-04-21T08:19:31.180Z,9.30
2019-04-21T08:22:09.486Z,10.03
2019-04-21T08:24:35.117Z,10.17
2019-04-21T08:27:05.123Z,9.30
2019-04-21T08:32:11.929Z,10.00
2019-04-21T08:34:36.849Z,9.77
2019-04-21T08:37:05.498Z,9.80
2019-04-21T08:39:37.947Z,9.30
2019-04-21T08:42:04.455Z,8.33
2019-04-21T08:44:40.278Z,10.00
2019-04-21T08:47:06.074Z,8.80
2019-04-21T08:49:44.277Z,8.80
2019-04-21T08:52:13.817Z,9.70
2019-04-21T08:54:43.524Z,9.23
2019-04-21T08:57:47.615Z,8.10
2019-04-21T09:00:12.476Z,8.43
2019-04-21T09:02:58.996Z,8.13
2019-04-21T09:05:27.746Z,8.23
2019-04-21T09:08:00.411Z,8.67
2019-04-21T09:10:33.490Z,8.47
2019-04-21T09:12:59.105Z,8.50
2019-04-21T09:15:31.074Z,9.03
2019-04-21T09:17:53.422Z,8.10
2019-04-21T09:20:32.855Z,7.00
2019-04-21T09:23:00.466Z,7.43
2019-04-21T09:25:40.799Z,7.60
2019-04-21T09:28:02.365Z,6.67
2019-04-21T09:30:15.244Z,5.40
2019-04-21T09:32:44.574Z,5.80
2019-04-21T09:35:14.911Z,5.33
2019-04-21T09:37:51.335Z,5.67
2019-04-21T09:40:16.895Z,5.50
2019-04-21T09:42:54.204Z,5.07
2019-04-21T09:45:17.613Z,5.53
2019-04-21T09:47:55.678Z,4.77
2019-04-21T09:50:17.369Z,5.20
2019-04-21T09:52:52.848Z,4.70
2019-04-21T09:55:20.795Z,4.87
2019-04-21T09:57:53.589Z,4.10
2019-04-21T10:00:23.172Z,4.10
2019-04-21T10:02:55.382Z,4.60
2019-04-21T10:05:21.432Z,4.00
2019-04-21T10:07:50.777Z,3.50
2019-04-21T10:10:20.119Z,3.37
2019-04-21T10:12:49.932Z,4.00
2019-04-21T10:15:23.264Z,3.93
2019-04-21T10:17:56.178Z,3.80
2019-04-21T10:20:26.359Z,3.37
2019-04-21T10:22:55.394Z,3.43
2019-04-21T10:25:25.057Z,3.93
2019-04-21T10:27:54.925Z,5.20
2019-04-21T10:30:24.594Z,3.60
2019-04-21T10:32:54.327Z,3.73
2019-04-21T10:35:31.109Z,3.30
2019-04-21T10:38:13.110Z,3.47
2019-04-21T10:40:33.820Z,4.17
2019-04-21T10:43:01.753Z,3.30
2019-04-21T10:45:30.967Z,3.60
2019-04-21T10:48:00.933Z,3.87
2019-04-21T10:50:31.292Z,3.63
2019-04-21T10:53:07.014Z,3.73
2019-04-21T10:55:53.539Z,3.80
2019-04-21T10:58:08.959Z,3.97
2019-04-21T11:00:39.747Z,3.80
2019-04-21T11:03:26.914Z,4.00
2019-04-21T11:05:56.718Z,4.60
2019-04-21T11:08:33.735Z,3.77
2019-04-21T11:10:56.446Z,4.40
2019-04-21T11:13:26.403Z,3.50
2019-04-21T11:15:55.362Z,4.00
2019-04-21T11:18:24.319Z,5.10
2019-04-21T11:20:53.214Z,4.13
2019-04-21T11:23:22.501Z,4.13
2019-04-21T11:25:51.738Z,4.70
2019-04-21T11:28:20.736Z,4.13
2019-04-21T11:30:50.991Z,4.30
2019-04-21T11:33:21.299Z,4.50
2019-04-21T11:35:51.242Z,3.60
2019-04-21T11:38:29.989Z,4.80
2019-04-21T11:40:58.028Z,4.10
2019-04-21T11:43:26.985Z,4.53
2019-04-21T11:45:55.836Z,3.57
2019-04-21T11:48:30.277Z,3.73
2019-04-21T11:50:59.464Z,4.10
2019-04-21T11:53:28.724Z,3.53
2019-04-21T11:55:58.835Z,3.43
2019-04-21T11:58:28.213Z,3.77
2019-04-21T12:00:59.989Z,4.10
2019-04-21T12:03:29.587Z,4.73
2019-04-21T12:05:59.576Z,3.60
2019-04-21T12:08:36.206Z,3.50
2019-04-21T12:10:59.739Z,4.53
2019-04-21T12:13:30.008Z,3.73
2019-04-21T12:15:59.173Z,3.27
2019-04-21T12:18:30.016Z,3.27
2019-04-21T12:20:58.625Z,3.50
2019-04-21T12:23:27.543Z,3.67
2019-04-21T12:25:56.990Z,4.10
2019-04-21T12:28:26.078Z,3.77
2019-04-21T12:30:55.959Z,3.43
2019-04-21T12:33:54.019Z,4.10
2019-04-21T12:36:24.154Z,3.40
2019-04-21T12:38:57.374Z,3.30
2019-04-21T12:41:24.617Z,3.60
2019-04-21T12:43:54.865Z,4.00
2019-04-21T12:46:23.883Z,4.30
2019-04-21T12:48:53.834Z,3.70
2019-04-21T12:51:23.953Z,4.30
2019-04-21T12:53:54.045Z,3.93
2019-04-21T12:56:23.425Z,3.40
2019-04-21T12:58:53.315Z,3.60
2019-04-21T13:01:23.171Z,3.87
2019-04-21T13:03:52.193Z,8.50
2019-04-21T13:06:21.360Z,5.97
2019-04-21T13:08:57.732Z,3.80
2019-04-21T13:11:21.376Z,3.43
2019-04-21T13:13:50.404Z,3.73
2019-04-21T13:24:19.969Z,5.03
2019-04-21T13:27:15.694Z,3.67
2019-04-21T13:30:10.930Z,3.63
2019-04-21T13:32:43.055Z,4.03
2019-04-21T13:50:17.244Z,4.03
2019-04-21T14:00:03.669Z,4.83
2019-04-21T14:05:50.513Z,4.70
2019-04-21T14:49:55.215Z,4.80
2019-04-21T14:50:58.064Z,5.00
2019-04-21T15:19:31.070Z,4.87
2019-04-21T15:25:03.862Z,3.70
2019-04-21T15:53:23.738Z,4.33
2019-04-21T16:07:58.241Z,3.73
2019-04-21T16:12:11.591Z,3.97
2019-04-21T16:14:40.770Z,7.30
2019-04-21T16:20:32.349Z,3.33
2019-04-21T16:23:02.261Z,4.10
2019-04-21T16:25:32.879Z,3.73
2019-04-21T16:28:01.929Z,4.03
2019-04-21T16:30:31.221Z,4.57
2019-04-21T16:33:00.151Z,4.57
2019-04-21T16:35:29.586Z,4.03
2019-04-21T16:38:00.790Z,5.20
2019-04-21T16:40:41.589Z,5.10
2019-04-21T16:43:00.408Z,4.30
2019-04-21T16:45:30.552Z,4.27
2019-04-21T16:48:01.070Z,4.97
2019-04-21T16:50:30.289Z,4.97
2019-04-21T16:53:16.512Z,4.00
2019-04-21T16:56:11.004Z,5.00
2019-04-21T16:58:43.689Z,7.57
2019-04-21T17:01:20.004Z,4.30
2019-04-21T17:03:48.611Z,4.80
2019-04-21T17:06:17.542Z,5.50
2019-04-21T17:08:47.161Z,4.97
2019-04-21T17:11:22.766Z,4.40
2019-04-21T17:13:47.416Z,4.40
2019-04-21T17:16:43.491Z,4.73
2019-04-21T17:18:58.737Z,6.37
2019-04-21T17:21:19.074Z,5.10
2019-04-21T17:23:48.430Z,3.90
2019-04-21T17:26:17.424Z,4.30
2019-04-21T17:28:46.731Z,4.10
2019-04-21T17:31:16.192Z,4.07
2019-04-21T17:33:47.119Z,3.90
2019-04-21T17:36:16.775Z,4.83
2019-04-21T17:38:45.946Z,5.00
2019-04-21T17:41:25.967Z,4.60
2019-04-21T17:43:46.022Z,4.00
2019-04-21T17:46:22.968Z,4.37
2019-04-21T17:48:47.136Z,4.20
2019-04-21T17:51:27.700Z,4.20
2019-04-21T17:54:02.699Z,4.67
2019-04-21T17:56:59.499Z,3.87
2019-04-21T17:59:35.860Z,4.37
2019-04-21T18:01:57.177Z,4.10
2019-04-21T18:04:28.855Z,3.70
2019-04-21T18:07:08.425Z,3.77
2019-04-21T18:09:49.824Z,3.53
2019-04-21T18:12:12.225Z,4.57
2019-04-21T18:14:28.500Z,4.33
2019-04-21T18:16:58.307Z,4.70
2019-04-21T18:19:31.038Z,4.10
2019-04-21T18:22:09.485Z,4.10
2019-04-21T18:24:48.839Z,5.80
2019-04-21T18:27:13.616Z,4.87
2019-04-21T18:29:44.501Z,4.53
2019-04-21T18:32:17.650Z,4.47
2019-04-21T18:35:19.207Z,5.43
2019-04-21T18:38:04.467Z,4.47
2019-04-21T18:40:31.922Z,5.00
2019-04-21T18:43:43.740Z,5.47
2019-04-21T18:46:06.906Z,5.00
2019-04-21T18:48:31.567Z,4.97
2019-04-21T18:51:36.647Z,5.17
2019-04-21T18:54:20.906Z,5.90
2019-04-21T18:56:29.792Z,5.60
2019-04-21T18:59:00.473Z,5.80
2019-04-21T19:01:33.276Z,5.90
2019-04-21T19:04:04.254Z,5.77
2019-04-21T19:06:47.034Z,6.20
2019-04-21T19:09:14.230Z,6.53
2019-04-21T19:11:56.259Z,6.60
2019-04-21T19:22:03.142Z,5.97
2019-04-21T19:27:19.231Z,5.87
2019-04-21T19:29:52.123Z,6.67
2019-04-21T19:32:04.023Z,6.30
2019-04-21T19:34:22.408Z,6.70
2019-04-21T19:36:51.200Z,7.03
2019-04-21T19:39:34.940Z,7.13
2019-04-21T19:42:00.550Z,7.23
2019-04-21T19:44:38.235Z,6.90
2019-04-21T19:47:03.602Z,7.70
2019-04-21T19:49:40.069Z,7.97
2019-04-21T19:53:04.251Z,8.20
2019-04-21T20:02:16.503Z,8.53
2019-04-21T20:05:15.379Z,8.13
2019-04-21T20:08:11.339Z,8.80
2019-04-21T20:11:00.575Z,7.67
2019-04-21T20:13:42.100Z,8.17
2019-04-21T20:16:03.847Z,8.60
2019-04-21T20:18:32.575Z,8.93
2019-04-21T20:20:54.322Z,8.80
2019-04-21T20:23:44.690Z,8.30
2019-04-21T20:26:37.680Z,8.27
2019-04-21T20:29:54.270Z,8.63
2019-04-21T20:32:31.638Z,8.10
2019-04-21T20:35:17.032Z,8.43
2019-04-21T20:37:55.245Z,8.03
2019-04-21T20:40:39.978Z,9.37
2019-04-21T20:43:37.014Z,7.80
2019-04-21T20:45:52.317Z,8.20
2019-04-21T20:48:15.363Z,7.97
2019-04-21T20:50:49.611Z,7.60
2019-04-21T20:53:19.837Z,6.60
2019-04-21T20:55:57.469Z,7.10
2019-04-21T20:58:24.044Z,5.73
2019-04-21T21:01:09.359Z,6.53
2019-04-21T21:03:28.878Z,6.10
2019-04-21T21:05:52.994Z,6.20
2019-04-21T21:08:34.574Z,5.77
2019-04-21T21:10:58.674Z,5.30
2019-04-21T21:13:33.402Z,4.63
2019-04-21T21:16:12.009Z,4.03
2019-04-21T21:21:09.566Z,3.80
2019-04-21T21:23:38.772Z,3.67
2019-04-21T21:26:09.490Z,4.17
2019-04-21T21:28:32.620Z,3.50
2019-04-21T21:31:11.496Z,4.00
2019-04-21T21:33:35.559Z,4.47
2019-04-21T21:36:05.527Z,4.30
2019-04-21T21:38:40.593Z,4.60
2019-04-21T21:40:59.916Z,4.60
2019-04-21T21:43:23.644Z,4.93
2019-04-21T21:45:56.151Z,4.87
2019-04-21T21:48:38.300Z,4.90
2019-04-21T21:51:04.385Z,5.50
2019-04-21T21:53:28.534Z,5.07
2019-04-21T21:55:54.311Z,5.53
2019-04-21T21:58:27.457Z,5.87
2019-04-21T22:00:58.981Z,5.67
2019-04-21T22:03:31.822Z,5.47
2019-04-21T22:06:03.586Z,5.03
2019-04-21T22:26:01.132Z,4.93
2019-04-21T22:43:04.983Z,4.27
2019-04-21T22:53:02.071Z,3.83
2019-04-21T23:23:15.132Z,3.40
2019-04-21T23:25:40.706Z,3.90
2019-04-21T23:28:11.608Z,3.67
2019-04-21T23:30:49.801Z,3.93
2019-04-21T23:33:02.436Z,3.77
2019-04-21T23:35:34.535Z,3.47
2019-04-21T23:38:03.194Z,3.70
2019-04-21T23:40:30.802Z,4.30
2019-04-21T23:43:00.141Z,3.50
2019-04-21T23:45:34.046Z,3.73
2019-04-21T23:48:15.629Z,4.20
2019-04-21T23:50:43.123Z,3.87
2019-04-21T23:53:01.617Z,3.50
2019-04-21T23:55:31.495Z,3.77
2019-04-21T23:58:07.099Z,3.90
